createdAt,value
2023-01-19T00:04:58.359Z,0
2023-01-19T00:11:21.457Z,0
2023-01-19T00:17:41.544Z,0
2023-01-19T00:24:04.430Z,0
2023-01-19T00:30:24.396Z,0
2023-01-19T00:36:47.500Z,0
2023-01-19T00:43:07.562Z,0
2023-01-19T00:49:30.355Z,0
2023-01-19T00:55:50.417Z,0
2023-01-19T01:02:13.632Z,0
2023-01-19T01:08:33.435Z,0
2023-01-19T01:14:56.384Z,0
2023-01-19T01:21:16.473Z,0
2023-01-19T01:27:39.461Z,0
2023-01-19T01:33:59.461Z,0
2023-01-19T01:40:22.461Z,0
2023-01-19T01:46:42.433Z,0
2023-01-19T01:53:06.207Z,0
2023-01-19T01:59:25.354Z,0
2023-01-19T02:05:48.565Z,0
2023-01-19T02:12:08.546Z,0
2023-01-19T02:18:31.403Z,0
2023-01-19T02:24:51.392Z,0
2023-01-19T02:31:14.444Z,0
2023-01-19T02:37:34.357Z,0
2023-01-19T02:43:57.555Z,0
2023-01-19T02:50:17.419Z,0
2023-01-19T02:56:40.537Z,0
2023-01-19T03:03:00.881Z,0
2023-01-19T03:09:23.482Z,0
2023-01-19T03:15:43.381Z,0
2023-01-19T03:22:06.368Z,0
2023-01-19T03:28:26.380Z,0
2023-01-19T03:34:49.365Z,0
2023-01-19T03:41:09.407Z,0
2023-01-19T03:47:32.483Z,0
2023-01-19T03:53:52.518Z,0
2023-01-19T04:00:15.467Z,0
2023-01-19T04:23:38.882Z,0
2023-01-19T04:29:58.311Z,0
2023-01-19T04:36:21.346Z,0
2023-01-19T04:42:41.400Z,0
2023-01-19T04:49:04.354Z,0
2023-01-19T04:55:24.353Z,0
2023-01-19T05:01:47.468Z,0
2023-01-19T05:08:07.341Z,0
2023-01-19T05:14:30.488Z,0
2023-01-19T05:20:50.474Z,0
2023-01-19T05:27:13.415Z,0
2023-01-19T05:33:33.469Z,0
2023-01-19T05:39:56.430Z,0
2023-01-19T05:46:16.428Z,0
2023-01-19T05:52:39.343Z,0
2023-01-19T05:58:59.348Z,0
2023-01-19T06:05:22.378Z,0
2023-01-19T06:11:42.380Z,0
2023-01-19T06:18:05.475Z,0
2023-01-19T06:24:25.411Z,0
2023-01-19T06:30:48.389Z,0
2023-01-19T06:37:08.572Z,0
2023-01-19T06:43:31.357Z,0
2023-01-19T06:49:51.335Z,0
2023-01-19T06:56:14.426Z,0
2023-01-19T07:02:34.619Z,1
2023-01-19T07:08:57.383Z,1
2023-01-19T07:15:17.620Z,2
2023-01-19T07:21:40.424Z,4
2023-01-19T07:28:00.364Z,5
2023-01-19T07:34:23.424Z,9
2023-01-19T07:40:43.372Z,12
2023-01-19T07:47:06.497Z,22
2023-01-19T07:53:26.689Z,38
2023-01-19T07:59:49.471Z,37
2023-01-19T08:06:09.494Z,37
2023-01-19T08:12:32.528Z,37
2023-01-19T08:18:52.348Z,54
2023-01-19T08:25:15.480Z,92
2023-01-19T08:31:35.542Z,131
2023-01-19T08:37:58.361Z,127
2023-01-19T08:44:18.398Z,161
2023-01-19T08:50:41.464Z,219
2023-01-19T08:57:01.345Z,269
2023-01-19T09:03:24.474Z,395
2023-01-19T09:09:44.378Z,349
2023-01-19T09:26:56.328Z,189
2023-01-19T09:33:16.377Z,267
2023-01-19T09:39:39.424Z,308
2023-01-19T09:45:59.495Z,252
2023-01-19T09:52:22.463Z,300
2023-01-19T09:58:42.616Z,322
2023-01-19T10:05:05.652Z,263
2023-01-19T10:11:25.566Z,447
2023-01-19T10:17:48.356Z,358
2023-01-19T10:24:08.403Z,294
2023-01-19T10:30:31.588Z,273
2023-01-19T10:36:51.350Z,295
2023-01-19T10:43:14.560Z,237
2023-01-19T10:49:35.111Z,211
2023-01-19T10:55:57.454Z,162
2023-01-19T11:02:17.700Z,199
2023-01-19T11:08:40.537Z,277
2023-01-19T11:15:00.348Z,270
2023-01-19T11:21:25.285Z,260
2023-01-19T11:27:43.455Z,358
2023-01-19T11:34:06.550Z,699
2023-01-19T11:40:26.721Z,665
2023-01-19T11:46:50.140Z,821
2023-01-19T11:53:09.378Z,794
2023-01-19T11:59:32.374Z,941
2023-01-19T12:05:52.428Z,857
2023-01-19T12:12:15.338Z,1061
2023-01-19T12:18:35.370Z,1141
2023-01-19T12:24:58.375Z,1232
2023-01-19T12:31:18.446Z,1022
2023-01-19T12:37:41.496Z,1636
2023-01-19T12:44:01.547Z,1289
2023-01-19T12:50:24.439Z,2845
2023-01-19T12:56:44.475Z,2464
2023-01-19T13:03:07.479Z,1544
2023-01-19T13:09:27.496Z,1156
2023-01-19T13:15:50.539Z,952
2023-01-19T13:22:10.334Z,977
2023-01-19T13:28:33.351Z,1629
2023-01-19T13:34:53.413Z,1571
2023-01-19T13:41:16.454Z,1421
2023-01-19T13:47:36.390Z,1041
2023-01-19T13:53:59.531Z,1213
2023-01-19T14:00:19.386Z,1072
2023-01-19T14:06:42.372Z,1596
2023-01-19T14:30:05.885Z,544
2023-01-19T14:36:25.364Z,808
2023-01-19T14:42:48.436Z,628
2023-01-19T14:49:08.361Z,338
2023-01-19T14:55:31.368Z,486
2023-01-19T15:01:51.521Z,475
2023-01-19T15:08:14.522Z,354
2023-01-19T15:14:34.424Z,288
2023-01-19T15:20:57.342Z,206
2023-01-19T15:27:17.420Z,206
2023-01-19T15:33:40.454Z,142
2023-01-19T15:40:00.411Z,104
2023-01-19T15:46:23.457Z,85
2023-01-19T15:52:43.679Z,57
2023-01-19T15:59:06.376Z,31
2023-01-19T16:05:37.613Z,19
2023-01-19T16:11:49.395Z,10
2023-01-19T16:18:09.420Z,5
2023-01-19T16:24:32.500Z,2
2023-01-19T16:30:52.384Z,1
2023-01-19T16:37:15.416Z,1
2023-01-19T16:43:35.361Z,0
2023-01-19T16:49:58.371Z,0
2023-01-19T16:56:18.351Z,0
2023-01-19T17:02:41.456Z,0
2023-01-19T17:09:01.327Z,0
2023-01-19T17:15:24.418Z,0
2023-01-19T17:21:44.503Z,0
2023-01-19T17:28:07.420Z,0
2023-01-19T17:34:27.445Z,0
2023-01-19T17:40:50.453Z,0
2023-01-19T17:47:10.385Z,0
2023-01-19T17:53:33.463Z,0
2023-01-19T17:59:53.355Z,0
2023-01-19T18:06:16.450Z,0
2023-01-19T18:12:36.425Z,0
2023-01-19T18:18:59.401Z,0
2023-01-19T18:25:19.647Z,0
2023-01-19T18:31:42.840Z,0
2023-01-19T18:38:02.444Z,0
2023-01-19T18:44:25.491Z,0
2023-01-19T18:50:45.521Z,0
2023-01-19T18:57:08.530Z,0
2023-01-19T19:03:28.342Z,0
2023-01-19T19:09:51.367Z,0
2023-01-19T19:33:34.272Z,0
2023-01-19T19:39:54.327Z,0
2023-01-19T19:46:17.416Z,0
2023-01-19T19:52:37.410Z,0
2023-01-19T19:59:00.429Z,0
2023-01-19T20:05:20.418Z,0
2023-01-19T20:11:43.496Z,0
2023-01-19T20:18:03.457Z,0
2023-01-19T20:24:26.375Z,0
2023-01-19T20:30:46.530Z,0
2023-01-19T20:37:09.389Z,0
2023-01-19T20:43:29.332Z,0
2023-01-19T20:49:52.353Z,0
2023-01-19T20:56:12.357Z,0
2023-01-19T21:02:35.412Z,0
2023-01-19T21:08:55.523Z,0
2023-01-19T21:15:18.427Z,0
2023-01-19T21:21:38.475Z,0
2023-01-19T21:28:01.614Z,0
2023-01-19T21:34:21.652Z,0
2023-01-19T21:40:44.506Z,0
2023-01-19T21:47:04.436Z,0
2023-01-19T21:53:27.464Z,0
2023-01-19T21:59:47.505Z,0
2023-01-19T22:06:10.485Z,0
2023-01-19T22:12:30.557Z,0
2023-01-19T22:18:53.348Z,0
2023-01-19T22:25:13.630Z,0
2023-01-19T22:31:36.530Z,0
2023-01-19T22:37:56.395Z,0
2023-01-19T22:44:19.408Z,0
2023-01-19T22:50:39.385Z,0
2023-01-19T22:57:02.450Z,0
2023-01-19T23:21:16.391Z,0
2023-01-19T23:27:36.317Z,0
2023-01-19T23:33:59.328Z,0
2023-01-19T23:40:19.373Z,0
2023-01-19T23:46:42.511Z,0
2023-01-19T23:53:02.507Z,0
2023-01-19T23:59:25.399Z,0
